createdAt,value
2022-09-28T00:00:21.144Z,1.53
2022-09-28T00:00:53.917Z,1.60
2022-09-28T00:01:26.255Z,1.30
2022-09-28T00:01:58.385Z,1.60
2022-09-28T00:02:31.545Z,1.50
2022-09-28T00:03:03.674Z,1.50
2022-09-28T00:03:36.540Z,1.37
2022-09-28T00:04:08.481Z,1.40
2022-09-28T00:04:40.426Z,1.50
2022-09-28T00:05:12.706Z,1.60
2022-09-28T00:05:44.655Z,1.40
2022-09-28T00:06:18.643Z,1.67
2022-09-28T00:06:50.637Z,1.27
2022-09-28T00:07:22.655Z,1.60
2022-09-28T00:07:54.656Z,1.70
2022-09-28T00:08:26.608Z,1.60
2022-09-28T00:08:58.623Z,1.40
2022-09-28T00:09:30.703Z,1.50
2022-09-28T00:10:02.707Z,1.40
2022-09-28T00:10:34.683Z,1.77
2022-09-28T00:11:07.459Z,1.50
2022-09-28T00:11:40.039Z,1.40
2022-09-28T00:12:12.053Z,1.60
2022-09-28T00:12:44.018Z,1.73
2022-09-28T00:13:15.942Z,1.23
2022-09-28T00:13:52.279Z,1.40
2022-09-28T00:14:24.580Z,1.47
2022-09-28T00:14:56.564Z,1.30
2022-09-28T00:15:29.213Z,1.40
2022-09-28T00:16:01.300Z,1.50
2022-09-28T00:16:35.192Z,1.20
2022-09-28T00:17:08.246Z,1.93
2022-09-28T00:17:40.231Z,1.40
2022-09-28T00:18:12.176Z,1.80
2022-09-28T00:18:44.708Z,1.63
2022-09-28T00:19:17.186Z,1.60
2022-09-28T00:19:49.718Z,1.37
2022-09-28T00:20:22.721Z,1.50
2022-09-28T00:21:03.489Z,1.90
2022-09-28T00:21:36.445Z,1.30
2022-09-28T00:22:08.416Z,1.37
2022-09-28T00:22:40.397Z,1.37
2022-09-28T00:23:12.321Z,1.70
2022-09-28T00:24:02.738Z,1.83
2022-09-28T00:24:34.700Z,1.50
2022-09-28T00:25:07.005Z,1.20
2022-09-28T00:25:38.927Z,1.30
2022-09-28T00:26:10.896Z,1.70
2022-09-28T00:26:44.719Z,1.40
2022-09-28T00:27:18.065Z,1.33
2022-09-28T00:27:50.432Z,1.57
2022-09-28T00:28:22.387Z,1.83
2022-09-28T00:28:54.755Z,1.30
2022-09-28T00:29:27.964Z,1.60
2022-09-28T00:30:00.139Z,1.40
2022-09-28T00:30:32.142Z,1.70
2022-09-28T00:31:04.206Z,1.50
2022-09-28T00:31:36.898Z,1.70
2022-09-28T00:32:13.405Z,1.30
2022-09-28T00:32:45.415Z,1.70
2022-09-28T00:33:17.425Z,1.40
2022-09-28T00:33:50.335Z,1.40
2022-09-28T00:34:22.326Z,1.90
2022-09-28T00:34:55.045Z,1.30
2022-09-28T00:35:27.183Z,1.60
2022-09-28T00:35:59.309Z,1.50
2022-09-28T00:36:32.354Z,1.67
2022-09-28T00:37:05.546Z,1.60
2022-09-28T00:37:37.540Z,1.60
2022-09-28T00:38:09.525Z,1.50
2022-09-28T00:38:41.700Z,1.33
2022-09-28T00:39:14.779Z,1.57
2022-09-28T00:39:48.643Z,1.60
2022-09-28T00:40:21.087Z,1.47
2022-09-28T00:40:53.314Z,1.43
2022-09-28T00:41:27.012Z,1.70
2022-09-28T00:41:59.719Z,1.67
2022-09-28T00:42:31.893Z,1.43
2022-09-28T00:43:17.035Z,1.23
2022-09-28T00:43:49.004Z,1.60
2022-09-28T00:44:24.589Z,1.40
2022-09-28T00:44:57.050Z,1.50
2022-09-28T00:45:29.309Z,1.40
2022-09-28T00:46:06.043Z,1.90
2022-09-28T00:46:38.081Z,1.57
2022-09-28T00:47:10.210Z,1.50
2022-09-28T00:47:44.924Z,1.43
2022-09-28T00:48:16.957Z,1.80
2022-09-28T00:49:00.585Z,1.70
2022-09-28T00:49:41.794Z,1.43
2022-09-28T00:50:16.650Z,1.50
2022-09-28T00:50:50.517Z,1.73
2022-09-28T00:51:22.997Z,1.50
2022-09-28T00:51:55.017Z,1.60
2022-09-28T00:52:30.869Z,1.63
2022-09-28T00:53:14.644Z,1.37
2022-09-28T00:53:48.738Z,1.53
2022-09-28T00:54:20.819Z,1.47
2022-09-28T00:54:53.470Z,1.47
2022-09-28T00:55:31.111Z,1.30
2022-09-28T00:56:07.526Z,1.67
2022-09-28T00:56:40.515Z,1.83
2022-09-28T00:57:13.053Z,1.57
2022-09-28T00:57:47.526Z,1.60
2022-09-28T00:58:21.592Z,1.73
2022-09-28T00:58:55.104Z,1.67
2022-09-28T00:59:28.302Z,1.60
2022-09-28T01:00:01.634Z,1.60
2022-09-28T01:00:33.791Z,1.70
2022-09-28T01:01:05.878Z,1.50
2022-09-28T01:01:38.022Z,1.80
2022-09-28T01:02:10.581Z,1.57
2022-09-28T01:02:43.499Z,1.87
2022-09-28T01:03:16.431Z,1.60
2022-09-28T01:03:48.811Z,1.80
2022-09-28T01:04:21.984Z,1.80
2022-09-28T01:04:54.477Z,1.60
2022-09-28T01:05:27.034Z,1.67
2022-09-28T01:06:02.221Z,1.67
2022-09-28T01:06:35.927Z,1.93
2022-09-28T01:07:08.900Z,1.70
2022-09-28T01:07:41.360Z,1.53
2022-09-28T01:08:14.299Z,1.93
2022-09-28T01:08:48.254Z,1.70
2022-09-28T01:09:21.682Z,1.60
2022-09-28T01:09:54.175Z,2.00
2022-09-28T01:10:27.667Z,1.90
2022-09-28T01:11:00.007Z,1.50
2022-09-28T01:11:33.658Z,2.00
2022-09-28T01:12:07.973Z,1.60
2022-09-28T01:12:39.960Z,1.70
2022-09-28T01:13:13.181Z,1.80
2022-09-28T01:13:46.350Z,1.93
2022-09-28T01:14:19.226Z,1.67
2022-09-28T01:14:51.600Z,1.90
2022-09-28T01:15:24.730Z,2.13
2022-09-28T01:16:08.036Z,1.60
2022-09-28T01:16:41.242Z,2.17
2022-09-28T01:17:48.845Z,1.80
2022-09-28T01:18:39.229Z,1.87
2022-09-28T01:19:29.342Z,1.73
2022-09-28T01:20:03.773Z,2.00
2022-09-28T01:20:44.867Z,1.90
2022-09-28T01:21:18.914Z,1.87
2022-09-28T01:21:53.551Z,1.90
2022-09-28T01:22:32.623Z,1.50
2022-09-28T01:23:09.413Z,1.80
2022-09-28T01:23:41.382Z,2.20
2022-09-28T01:24:32.337Z,1.97
2022-09-28T01:25:12.042Z,1.97
2022-09-28T01:25:52.956Z,2.00
2022-09-28T01:26:27.555Z,1.87
2022-09-28T01:27:10.710Z,2.30
2022-09-28T01:27:44.175Z,2.47
2022-09-28T01:28:17.951Z,2.10
2022-09-28T01:28:52.479Z,1.97
2022-09-28T01:29:36.816Z,2.20
2022-09-28T01:30:10.429Z,1.73
2022-09-28T01:30:56.292Z,1.70
2022-09-28T01:31:31.341Z,1.90
2022-09-28T01:32:11.146Z,2.00
2022-09-28T01:32:47.887Z,2.07
2022-09-28T01:33:23.403Z,1.70
2022-09-28T01:33:56.913Z,1.70
2022-09-28T01:34:32.371Z,2.07
2022-09-28T01:35:13.560Z,1.93
2022-09-28T01:35:51.962Z,1.90
2022-09-28T01:36:23.965Z,2.23
2022-09-28T01:36:57.927Z,1.90
2022-09-28T01:37:33.808Z,1.93
2022-09-28T01:38:08.058Z,2.10
2022-09-28T01:38:43.352Z,2.23
2022-09-28T01:39:18.112Z,2.10
2022-09-28T01:39:51.824Z,1.73
2022-09-28T01:40:26.307Z,2.20
2022-09-28T01:40:59.572Z,2.07
2022-09-28T01:41:32.932Z,2.17
2022-09-28T01:42:07.520Z,2.20
2022-09-28T01:42:40.282Z,1.57
2022-09-28T01:43:17.670Z,2.30
2022-09-28T01:43:53.542Z,2.07
2022-09-28T01:44:26.024Z,2.07
2022-09-28T01:45:03.690Z,2.10
2022-09-28T01:45:41.986Z,1.93
2022-09-28T01:46:16.357Z,2.10
2022-09-28T01:46:49.498Z,2.00
2022-09-28T01:47:23.418Z,2.43
2022-09-28T01:47:57.998Z,2.10
2022-09-28T01:48:36.516Z,2.50
2022-09-28T01:49:10.453Z,1.80
2022-09-28T01:49:45.276Z,2.13
2022-09-28T01:50:20.552Z,2.20
2022-09-28T01:50:55.113Z,2.20
2022-09-28T01:51:41.816Z,2.40
2022-09-28T01:52:17.921Z,2.00
2022-09-28T01:53:08.549Z,2.20
2022-09-28T01:53:43.571Z,2.53
2022-09-28T01:54:24.919Z,2.30
2022-09-28T01:55:02.570Z,2.90
2022-09-28T01:55:42.133Z,1.80
2022-09-28T01:56:21.385Z,2.17
2022-09-28T01:57:03.896Z,2.33
2022-09-28T01:57:44.569Z,2.70
2022-09-28T01:58:28.150Z,2.30
2022-09-28T01:59:05.081Z,2.17
2022-09-28T01:59:38.592Z,2.50
2022-09-28T02:00:11.938Z,2.27
2022-09-28T02:00:49.420Z,2.73
2022-09-28T02:01:28.730Z,2.23
2022-09-28T02:02:04.417Z,2.00
2022-09-28T02:02:48.781Z,2.30
2022-09-28T02:03:29.919Z,2.40
2022-09-28T02:04:12.185Z,2.50
2022-09-28T02:05:04.636Z,2.20
2022-09-28T02:05:37.383Z,2.20
2022-09-28T02:06:13.431Z,2.30
2022-09-28T02:06:49.673Z,2.33
2022-09-28T02:07:24.373Z,2.53
2022-09-28T02:08:16.718Z,2.40
2022-09-28T02:08:51.479Z,2.23
2022-09-28T02:09:33.042Z,2.70
2022-09-28T02:10:13.070Z,2.37
2022-09-28T02:10:49.245Z,2.27
2022-09-28T02:11:22.323Z,2.50
2022-09-28T02:11:58.990Z,2.43
2022-09-28T02:12:35.089Z,2.20
2022-09-28T02:13:14.247Z,2.57
2022-09-28T02:13:49.249Z,2.23
2022-09-28T02:14:22.820Z,2.63
2022-09-28T02:14:59.608Z,2.60
2022-09-28T02:15:45.959Z,2.30
2022-09-28T02:16:26.860Z,2.40
2022-09-28T02:16:58.917Z,2.20
2022-09-28T02:17:34.115Z,2.30
2022-09-28T02:18:06.455Z,2.33
2022-09-28T02:18:38.489Z,2.40
2022-09-28T02:19:12.920Z,2.50
2022-09-28T02:19:45.065Z,2.60
2022-09-28T02:20:17.355Z,2.67
2022-09-28T02:20:53.183Z,2.57
2022-09-28T02:21:31.461Z,2.30
2022-09-28T02:22:11.929Z,2.40
2022-09-28T02:22:47.877Z,2.40
2022-09-28T02:23:22.320Z,2.50
2022-09-28T02:23:56.897Z,2.77
2022-09-28T02:24:35.007Z,2.47
2022-09-28T02:25:36.495Z,2.20
2022-09-28T02:26:10.656Z,2.00
2022-09-28T02:26:44.688Z,2.50
2022-09-28T02:27:25.947Z,2.20
2022-09-28T02:28:01.942Z,2.40
2022-09-28T02:28:34.321Z,2.03
2022-09-28T02:29:06.391Z,2.20
2022-09-28T02:29:38.401Z,2.60
2022-09-28T02:30:10.771Z,2.53
2022-09-28T02:30:43.961Z,2.20
2022-09-28T02:31:17.106Z,2.43
2022-09-28T02:31:50.414Z,2.50
2022-09-28T02:32:23.683Z,2.10
2022-09-28T02:32:58.597Z,2.17
2022-09-28T02:33:33.101Z,2.43
2022-09-28T02:34:05.305Z,3.00
2022-09-28T02:34:37.593Z,2.23
2022-09-28T02:35:11.345Z,2.27
2022-09-28T02:35:43.499Z,2.10
2022-09-28T02:36:15.447Z,2.20
2022-09-28T02:36:47.966Z,2.63
2022-09-28T02:37:19.941Z,2.17
2022-09-28T02:37:52.386Z,2.50
2022-09-28T02:38:24.545Z,2.07
2022-09-28T02:38:57.319Z,2.13
2022-09-28T02:39:29.480Z,2.10
2022-09-28T02:40:01.852Z,1.97
2022-09-28T02:40:35.466Z,2.30
2022-09-28T02:41:33.685Z,2.00
2022-09-28T02:42:17.215Z,2.60
2022-09-28T02:42:56.948Z,2.40
2022-09-28T02:43:31.665Z,2.00
2022-09-28T02:44:22.362Z,2.00
2022-09-28T02:45:18.824Z,2.20
2022-09-28T02:45:51.378Z,2.03
2022-09-28T02:46:30.143Z,2.53
2022-09-28T02:47:15.770Z,1.97
2022-09-28T02:47:50.664Z,2.30
2022-09-28T02:48:55.803Z,2.50
2022-09-28T02:49:24.079Z,2.20
2022-09-28T02:50:03.251Z,2.03
2022-09-28T02:50:35.749Z,2.13
2022-09-28T02:51:14.140Z,2.13
2022-09-28T02:51:49.122Z,2.37
2022-09-28T02:52:38.625Z,2.50
2022-09-28T02:53:29.345Z,2.30
2022-09-28T02:54:02.443Z,2.20
2022-09-28T02:54:34.863Z,2.27
2022-09-28T02:55:12.801Z,2.20
2022-09-28T02:56:00.859Z,2.30
2022-09-28T02:56:32.999Z,2.50
2022-09-28T02:57:13.847Z,2.13
2022-09-28T02:57:52.003Z,2.37
2022-09-28T02:58:30.179Z,2.50
2022-09-28T02:59:02.213Z,2.07
2022-09-28T02:59:40.087Z,2.20
2022-09-28T03:00:15.391Z,2.23
2022-09-28T03:00:53.438Z,2.13
2022-09-28T03:01:42.190Z,2.23
2022-09-28T03:02:29.327Z,2.40
2022-09-28T03:03:04.454Z,2.83
2022-09-28T03:03:45.840Z,2.10
2022-09-28T03:04:24.325Z,2.10
2022-09-28T03:05:18.803Z,2.00
2022-09-28T03:06:02.294Z,2.30
2022-09-28T03:06:42.950Z,2.10
2022-09-28T03:07:22.890Z,2.73
2022-09-28T03:08:06.843Z,2.23
2022-09-28T03:08:47.850Z,1.90
2022-09-28T03:09:29.584Z,2.37
2022-09-28T03:10:05.997Z,2.30
2022-09-28T03:10:49.810Z,2.30
2022-09-28T03:11:23.984Z,2.20
2022-09-28T03:11:58.076Z,2.00
2022-09-28T03:12:30.299Z,2.30
2022-09-28T03:13:03.352Z,2.10
2022-09-28T03:13:35.398Z,2.10
2022-09-28T03:14:07.462Z,2.40
2022-09-28T03:14:48.298Z,2.50
2022-09-28T03:15:20.523Z,2.10
2022-09-28T03:15:52.621Z,2.43
2022-09-28T03:16:24.738Z,2.27
2022-09-28T03:16:56.845Z,2.00
2022-09-28T03:17:28.894Z,2.50
2022-09-28T03:18:01.444Z,2.40
2022-09-28T03:18:33.474Z,2.70
2022-09-28T03:19:05.416Z,2.90
2022-09-28T03:19:37.528Z,2.40
2022-09-28T03:20:10.113Z,2.57
2022-09-28T03:20:42.410Z,2.67
2022-09-28T03:21:14.994Z,2.20
2022-09-28T03:21:47.197Z,2.10
2022-09-28T03:22:19.975Z,2.10
2022-09-28T03:23:06.437Z,2.00
2022-09-28T03:23:45.122Z,2.10
2022-09-28T03:24:17.130Z,2.33
2022-09-28T03:24:49.080Z,2.10
2022-09-28T03:25:21.276Z,2.13
2022-09-28T03:25:53.315Z,2.40
2022-09-28T03:26:25.308Z,2.20
2022-09-28T03:26:57.336Z,2.20
2022-09-28T03:27:29.312Z,1.80
2022-09-28T03:28:01.397Z,1.90
2022-09-28T03:28:36.197Z,2.37
2022-09-28T03:29:08.363Z,2.20
2022-09-28T03:29:40.706Z,1.90
2022-09-28T03:30:13.572Z,2.27
2022-09-28T03:30:48.846Z,2.47
2022-09-28T03:31:20.839Z,2.13
2022-09-28T03:31:52.950Z,1.60
2022-09-28T03:32:24.971Z,2.00
2022-09-28T03:33:00.454Z,2.00
2022-09-28T03:33:34.708Z,1.80
2022-09-28T03:34:06.653Z,1.90
2022-09-28T03:34:38.642Z,2.00
2022-09-28T03:35:11.190Z,1.93
2022-09-28T03:35:46.425Z,2.20
2022-09-28T03:36:18.462Z,1.90
2022-09-28T03:36:50.772Z,2.00
2022-09-28T03:37:22.740Z,2.30
2022-09-28T03:37:55.946Z,2.03
2022-09-28T03:38:29.632Z,2.00
2022-09-28T03:39:01.680Z,1.90
2022-09-28T03:39:33.947Z,1.90
2022-09-28T03:40:06.298Z,1.90
2022-09-28T03:40:39.032Z,1.83
2022-09-28T03:41:11.178Z,1.90
2022-09-28T03:41:46.168Z,1.90
2022-09-28T03:42:18.248Z,1.80
2022-09-28T03:42:54.124Z,2.20
2022-09-28T03:43:26.500Z,2.00
2022-09-28T03:44:00.262Z,1.93
2022-09-28T03:44:34.048Z,1.60
2022-09-28T03:45:06.293Z,1.80
2022-09-28T03:45:38.491Z,1.83
2022-09-28T03:46:10.564Z,1.50
2022-09-28T03:46:47.569Z,1.80
2022-09-28T03:47:20.046Z,2.07
2022-09-28T03:47:52.211Z,1.90
2022-09-28T03:48:28.810Z,2.03
2022-09-28T03:49:04.007Z,1.70
2022-09-28T03:49:36.084Z,1.80
2022-09-28T03:50:08.480Z,1.73
2022-09-28T03:50:40.415Z,2.00
2022-09-28T03:51:15.410Z,1.37
2022-09-28T03:51:47.558Z,1.80
2022-09-28T03:52:19.541Z,1.80
2022-09-28T03:52:51.593Z,1.60
2022-09-28T03:53:23.716Z,1.90
2022-09-28T03:53:55.815Z,1.90
2022-09-28T03:54:27.787Z,1.90
2022-09-28T03:54:59.842Z,1.70
2022-09-28T03:55:32.351Z,1.70
2022-09-28T03:56:05.254Z,1.93
2022-09-28T03:56:37.949Z,1.73
2022-09-28T03:57:10.121Z,1.90
2022-09-28T03:57:42.089Z,1.83
2022-09-28T03:58:14.314Z,1.57
2022-09-28T03:58:46.422Z,1.80
2022-09-28T03:59:18.791Z,1.60
2022-09-28T03:59:50.907Z,2.00
2022-09-28T04:00:23.085Z,1.73
2022-09-28T04:00:55.160Z,1.80
2022-09-28T04:01:27.325Z,1.77
2022-09-28T04:01:59.428Z,1.70
2022-09-28T04:02:31.491Z,1.80
2022-09-28T04:03:03.551Z,1.80
2022-09-28T04:03:35.561Z,1.80
2022-09-28T04:04:07.563Z,1.77
2022-09-28T04:04:40.024Z,1.93
2022-09-28T04:05:11.999Z,1.80
2022-09-28T04:05:50.232Z,1.70
2022-09-28T04:06:22.872Z,2.20
2022-09-28T04:06:55.189Z,2.10
2022-09-28T04:07:30.926Z,1.60
2022-09-28T04:08:03.738Z,2.00
2022-09-28T04:08:35.729Z,1.67
2022-09-28T04:09:08.200Z,1.87
2022-09-28T04:09:40.199Z,1.60
2022-09-28T04:10:12.239Z,1.73
2022-09-28T04:10:44.392Z,1.90
2022-09-28T04:11:16.859Z,1.63
2022-09-28T04:12:03.487Z,1.87
2022-09-28T04:12:36.951Z,1.90
2022-09-28T04:13:10.470Z,1.77
2022-09-28T04:13:43.379Z,1.90
2022-09-28T04:14:18.429Z,1.93
2022-09-28T04:14:50.527Z,1.70
2022-09-28T04:15:24.382Z,1.50
2022-09-28T04:15:58.520Z,2.03
2022-09-28T04:16:32.096Z,1.73
2022-09-28T04:17:15.915Z,1.60
2022-09-28T04:17:48.609Z,1.87
2022-09-28T04:18:36.609Z,1.47
2022-09-28T04:19:15.777Z,1.77
2022-09-28T04:19:50.613Z,1.63
2022-09-28T04:20:46.008Z,1.90
2022-09-28T04:21:22.233Z,1.73
2022-09-28T04:22:01.490Z,1.80
2022-09-28T04:22:33.557Z,1.73
2022-09-28T04:23:05.721Z,1.70
2022-09-28T04:23:39.098Z,1.70
2022-09-28T04:24:11.417Z,1.53
2022-09-28T04:24:43.621Z,1.97
2022-09-28T04:25:15.667Z,1.50
2022-09-28T04:25:51.717Z,1.50
2022-09-28T04:26:25.467Z,1.50
2022-09-28T04:27:17.410Z,1.50
2022-09-28T04:28:08.200Z,1.50
2022-09-28T04:29:03.986Z,1.30
2022-09-28T04:29:38.879Z,1.53
2022-09-28T04:30:11.476Z,1.90
2022-09-28T04:30:46.125Z,1.70
2022-09-28T04:31:19.747Z,1.70
2022-09-28T04:31:52.805Z,1.90
2022-09-28T04:32:27.261Z,1.63
2022-09-28T04:32:59.209Z,1.87
2022-09-28T04:33:34.107Z,1.53
2022-09-28T04:34:06.111Z,1.40
2022-09-28T04:34:43.170Z,1.43
2022-09-28T04:35:16.341Z,1.77
2022-09-28T04:35:48.390Z,1.40
2022-09-28T04:36:20.515Z,1.37
2022-09-28T04:36:52.597Z,1.50
2022-09-28T04:37:24.645Z,1.40
2022-09-28T04:37:56.715Z,1.70
2022-09-28T04:38:48.750Z,1.63
2022-09-28T04:39:21.543Z,1.20
2022-09-28T04:39:56.965Z,1.30
2022-09-28T04:40:28.975Z,1.40
2022-09-28T04:41:01.148Z,1.40
2022-09-28T04:41:33.361Z,1.50
2022-09-28T04:42:05.916Z,1.80
2022-09-28T04:42:37.973Z,1.60
2022-09-28T04:43:09.939Z,1.30
2022-09-28T04:43:41.973Z,1.30
2022-09-28T04:44:14.015Z,1.30
2022-09-28T04:44:46.047Z,1.30
2022-09-28T04:45:18.074Z,1.30
2022-09-28T04:45:51.245Z,1.37
2022-09-28T04:46:29.270Z,1.20
2022-09-28T04:47:19.947Z,1.30
2022-09-28T04:48:21.337Z,1.30
2022-09-28T04:49:19.635Z,1.40
2022-09-28T04:50:03.495Z,1.33
2022-09-28T04:50:40.312Z,1.37
2022-09-28T04:51:20.913Z,1.10
2022-09-28T04:51:52.955Z,1.60
2022-09-28T04:52:26.685Z,1.60
2022-09-28T04:53:00.373Z,1.50
2022-09-28T04:53:32.549Z,1.60
2022-09-28T04:54:04.557Z,1.70
2022-09-28T04:54:37.087Z,1.50
2022-09-28T04:55:11.755Z,1.40
2022-09-28T04:55:44.825Z,1.70
2022-09-28T04:56:17.682Z,1.70
2022-09-28T04:56:49.897Z,1.50
2022-09-28T04:57:22.056Z,1.43
2022-09-28T04:57:54.374Z,1.40
2022-09-28T04:58:26.594Z,1.60
2022-09-28T04:58:58.888Z,1.60
2022-09-28T04:59:31.039Z,1.80
2022-09-28T05:00:03.729Z,1.30
2022-09-28T05:00:37.195Z,1.60
2022-09-28T05:01:24.175Z,1.60
2022-09-28T05:02:02.471Z,1.60
2022-09-28T05:02:53.927Z,1.50
2022-09-28T05:03:48.638Z,1.77
2022-09-28T05:04:46.635Z,1.40
2022-09-28T05:05:37.057Z,1.60
2022-09-28T05:06:22.650Z,1.33
2022-09-28T05:07:00.464Z,1.50
2022-09-28T05:07:32.446Z,1.60
2022-09-28T05:08:07.085Z,1.70
2022-09-28T05:08:39.800Z,1.70
2022-09-28T05:09:11.787Z,1.57
2022-09-28T05:09:43.881Z,1.67
2022-09-28T05:10:15.905Z,1.43
2022-09-28T05:10:48.030Z,1.50
2022-09-28T05:11:21.631Z,1.23
2022-09-28T05:11:53.691Z,1.63
2022-09-28T05:12:27.861Z,1.47
2022-09-28T05:13:01.379Z,1.60
2022-09-28T05:13:35.764Z,1.50
2022-09-28T05:14:07.759Z,1.50
2022-09-28T05:14:39.704Z,1.60
2022-09-28T05:15:11.934Z,1.43
2022-09-28T05:15:44.062Z,1.93
2022-09-28T05:16:16.615Z,1.77
2022-09-28T05:17:07.324Z,1.73
2022-09-28T05:18:02.438Z,1.63
2022-09-28T05:18:45.015Z,1.80
2022-09-28T05:19:17.080Z,1.80
2022-09-28T05:19:49.151Z,1.50
2022-09-28T05:20:21.150Z,1.80
2022-09-28T05:20:53.283Z,1.87
2022-09-28T05:21:26.385Z,1.50
2022-09-28T05:21:58.347Z,1.40
2022-09-28T05:22:30.422Z,1.70
2022-09-28T05:23:02.436Z,1.53
2022-09-28T05:23:34.703Z,1.70
2022-09-28T05:24:07.738Z,1.83
2022-09-28T05:24:42.712Z,1.80
2022-09-28T05:25:14.785Z,1.60
2022-09-28T05:26:07.273Z,1.57
2022-09-28T05:26:40.983Z,1.80
2022-09-28T05:27:15.185Z,1.60
2022-09-28T05:27:57.053Z,1.80
2022-09-28T05:28:51.956Z,1.60
2022-09-28T05:29:49.562Z,1.50
2022-09-28T05:30:33.808Z,1.73
2022-09-28T05:31:29.019Z,1.47
2022-09-28T05:32:16.778Z,1.60
2022-09-28T05:33:03.738Z,1.67
2022-09-28T05:33:46.857Z,1.60
2022-09-28T05:34:18.982Z,1.90
2022-09-28T05:34:51.109Z,1.57
2022-09-28T05:35:29.794Z,1.50
2022-09-28T05:36:02.153Z,1.60
2022-09-28T05:36:35.691Z,2.00
2022-09-28T05:37:07.719Z,1.73
2022-09-28T05:37:41.081Z,1.80
2022-09-28T05:38:13.098Z,1.90
2022-09-28T05:38:45.393Z,1.50
2022-09-28T05:39:17.502Z,1.40
2022-09-28T05:39:50.350Z,1.27
2022-09-28T05:40:22.820Z,1.40
2022-09-28T05:40:54.851Z,1.50
2022-09-28T05:41:26.972Z,1.37
2022-09-28T05:41:58.988Z,1.57
2022-09-28T05:42:31.442Z,1.43
2022-09-28T05:43:04.037Z,1.57
2022-09-28T05:43:38.355Z,1.40
2022-09-28T05:44:10.590Z,1.50
2022-09-28T05:44:42.554Z,1.50
2022-09-28T05:45:14.616Z,1.60
2022-09-28T05:45:51.653Z,1.77
2022-09-28T05:46:27.321Z,1.30
2022-09-28T05:46:59.337Z,1.87
2022-09-28T05:47:31.429Z,1.77
2022-09-28T05:48:03.482Z,2.03
2022-09-28T05:48:35.791Z,1.40
2022-09-28T05:49:07.764Z,1.93
2022-09-28T05:49:39.734Z,1.60
2022-09-28T05:50:11.870Z,1.73
2022-09-28T05:50:44.486Z,1.37
2022-09-28T05:51:16.541Z,1.37
2022-09-28T05:51:48.562Z,1.90
2022-09-28T05:52:20.612Z,1.60
2022-09-28T05:53:03.079Z,1.60
2022-09-28T05:53:35.105Z,1.20
2022-09-28T05:54:08.396Z,1.20
2022-09-28T05:54:43.817Z,2.10
2022-09-28T05:55:16.054Z,1.90
2022-09-28T05:55:48.586Z,1.63
2022-09-28T05:56:20.631Z,1.60
2022-09-28T05:56:54.076Z,2.10
2022-09-28T05:57:26.047Z,1.60
2022-09-28T05:57:59.303Z,1.30
2022-09-28T05:58:31.310Z,1.20
2022-09-28T05:59:06.110Z,1.43
2022-09-28T05:59:38.558Z,1.70
2022-09-28T06:00:10.848Z,1.50
2022-09-28T06:00:46.919Z,1.63
2022-09-28T06:01:19.099Z,1.83
2022-09-28T06:01:51.331Z,1.93
2022-09-28T06:02:23.551Z,1.60
2022-09-28T06:02:56.687Z,1.67
2022-09-28T06:03:28.724Z,1.57
2022-09-28T06:04:00.803Z,1.50
2022-09-28T06:04:32.862Z,1.33
2022-09-28T06:05:05.009Z,1.37
2022-09-28T06:05:39.237Z,1.80
2022-09-28T06:06:11.294Z,1.93
2022-09-28T06:06:44.593Z,1.83
2022-09-28T06:07:19.648Z,1.67
2022-09-28T06:07:51.819Z,1.93
2022-09-28T06:08:23.882Z,1.83
2022-09-28T06:09:03.334Z,1.80
2022-09-28T06:09:38.183Z,1.90
2022-09-28T06:10:20.851Z,1.87
2022-09-28T06:10:52.814Z,1.50
2022-09-28T06:11:27.876Z,1.70
2022-09-28T06:12:01.969Z,1.70
2022-09-28T06:12:45.509Z,1.70
2022-09-28T06:13:20.689Z,1.83
2022-09-28T06:13:55.668Z,1.60
2022-09-28T06:14:27.757Z,2.10
2022-09-28T06:15:01.192Z,1.73
2022-09-28T06:15:34.749Z,1.90
2022-09-28T06:16:11.473Z,1.60
2022-09-28T06:16:44.795Z,1.70
2022-09-28T06:17:18.356Z,1.80
2022-09-28T06:17:58.513Z,1.73
2022-09-28T06:19:09.249Z,1.43
2022-09-28T06:20:04.505Z,1.80
2022-09-28T06:21:12.695Z,1.77
2022-09-28T06:21:49.916Z,1.80
2022-09-28T06:22:21.885Z,2.10
2022-09-28T06:23:09.008Z,1.83
2022-09-28T06:23:43.587Z,1.93
2022-09-28T06:24:17.808Z,1.70
2022-09-28T06:24:49.872Z,1.60
2022-09-28T06:25:23.067Z,1.60
2022-09-28T06:25:55.044Z,1.80
2022-09-28T06:26:27.352Z,1.40
2022-09-28T06:26:59.387Z,1.70
2022-09-28T06:27:33.485Z,1.50
2022-09-28T06:28:06.800Z,1.83
2022-09-28T06:28:38.864Z,1.60
2022-09-28T06:29:18.630Z,1.60
2022-09-28T06:29:52.025Z,2.00
2022-09-28T06:30:26.857Z,1.90
2022-09-28T06:30:59.769Z,1.80
2022-09-28T06:31:32.103Z,1.70
2022-09-28T06:32:04.079Z,1.70
2022-09-28T06:32:36.273Z,1.53
2022-09-28T06:33:10.661Z,1.70
2022-09-28T06:33:42.758Z,1.80
2022-09-28T06:34:14.923Z,1.73
2022-09-28T06:34:47.022Z,1.60
2022-09-28T06:35:19.099Z,1.63
2022-09-28T06:35:52.095Z,1.50
2022-09-28T06:36:24.215Z,1.30
2022-09-28T06:36:56.770Z,1.70
2022-09-28T06:37:28.925Z,1.40
2022-09-28T06:38:01.756Z,1.80
2022-09-28T06:38:34.097Z,1.67
2022-09-28T06:39:06.467Z,1.60
2022-09-28T06:39:40.254Z,1.80
2022-09-28T06:40:12.238Z,1.33
2022-09-28T06:40:44.524Z,1.70
2022-09-28T06:41:16.608Z,2.07
2022-09-28T06:41:50.014Z,1.60
2022-09-28T06:42:25.108Z,1.57
2022-09-28T06:43:22.279Z,1.50
2022-09-28T06:44:12.935Z,1.70
2022-09-28T06:45:04.537Z,1.63
2022-09-28T06:45:53.162Z,1.67
2022-09-28T06:46:48.236Z,1.60
2022-09-28T06:47:41.851Z,1.80
2022-09-28T06:48:21.909Z,1.50
2022-09-28T06:48:54.581Z,1.50
2022-09-28T06:49:48.353Z,1.50
2022-09-28T06:50:40.929Z,2.07
2022-09-28T06:51:33.369Z,1.80
2022-09-28T06:52:23.735Z,1.57
2022-09-28T06:53:19.210Z,1.60
2022-09-28T06:54:11.445Z,1.30
2022-09-28T06:54:55.564Z,1.67
2022-09-28T06:55:34.052Z,2.10
2022-09-28T06:56:11.131Z,1.80
2022-09-28T06:56:43.132Z,1.40
2022-09-28T06:57:15.255Z,1.83
2022-09-28T06:57:47.552Z,1.50
2022-09-28T06:58:21.101Z,1.53
2022-09-28T06:58:53.074Z,1.53
2022-09-28T06:59:25.092Z,1.60
2022-09-28T06:59:57.456Z,1.63
2022-09-28T07:00:31.203Z,1.70
2022-09-28T07:01:03.998Z,1.23
2022-09-28T07:01:45.679Z,1.63
2022-09-28T07:02:43.831Z,1.20
2022-09-28T07:03:31.911Z,1.43
2022-09-28T07:04:22.793Z,1.70
2022-09-28T07:05:31.850Z,1.50
2022-09-28T07:06:26.607Z,1.60
2022-09-28T07:07:36.618Z,1.63
2022-09-28T07:08:16.566Z,1.50
2022-09-28T07:09:23.653Z,1.50
2022-09-28T07:10:13.533Z,1.53
2022-09-28T07:11:07.331Z,1.37
2022-09-28T07:11:54.103Z,1.60
2022-09-28T07:12:32.246Z,1.50
2022-09-28T07:13:20.361Z,1.60
2022-09-28T07:14:14.618Z,1.80
2022-09-28T07:14:57.220Z,1.53
2022-09-28T07:15:32.032Z,1.40
2022-09-28T07:16:04.846Z,1.50
2022-09-28T07:17:04.188Z,1.70
2022-09-28T07:17:29.586Z,1.50
2022-09-28T07:18:05.372Z,1.40
2022-09-28T07:18:37.408Z,1.33
2022-09-28T07:19:09.759Z,1.50
2022-09-28T07:19:41.866Z,1.40
2022-09-28T07:20:19.143Z,1.40
2022-09-28T07:20:55.252Z,1.77
2022-09-28T07:21:30.494Z,1.60
2022-09-28T07:22:06.068Z,1.30
2022-09-28T07:22:43.428Z,1.40
2022-09-28T07:23:20.366Z,1.60
2022-09-28T07:24:16.256Z,1.20
2022-09-28T07:25:24.069Z,1.30
2022-09-28T07:26:10.908Z,1.40
2022-09-28T07:26:57.387Z,1.50
2022-09-28T07:27:48.144Z,1.40
2022-09-28T07:28:35.482Z,1.40
2022-09-28T07:29:24.025Z,1.50
2022-09-28T07:30:06.554Z,1.37
2022-09-28T07:30:46.242Z,1.40
2022-09-28T07:31:25.227Z,1.30
2022-09-28T07:32:20.031Z,1.03
2022-09-28T07:33:19.348Z,1.37
2022-09-28T07:34:01.516Z,1.57
2022-09-28T07:34:44.021Z,1.40
2022-09-28T07:35:24.126Z,1.33
2022-09-28T07:35:57.577Z,1.20
2022-09-28T07:36:35.228Z,1.33
2022-09-28T07:37:08.885Z,1.30
2022-09-28T07:37:40.970Z,1.17
2022-09-28T07:38:13.416Z,1.50
2022-09-28T07:38:45.505Z,1.10
2022-09-28T07:39:17.461Z,1.47
2022-09-28T07:40:08.381Z,1.30
2022-09-28T07:41:01.496Z,1.20
2022-09-28T07:41:33.788Z,1.23
2022-09-28T07:42:08.254Z,1.30
2022-09-28T07:42:40.874Z,1.23
2022-09-28T07:43:14.293Z,1.20
2022-09-28T07:43:46.632Z,1.10
2022-09-28T07:44:19.086Z,1.37
2022-09-28T07:44:53.107Z,1.33
2022-09-28T07:45:25.064Z,1.20
2022-09-28T07:45:57.556Z,1.50
2022-09-28T07:46:29.594Z,1.20
2022-09-28T07:47:06.428Z,1.27
2022-09-28T07:48:01.028Z,1.20
2022-09-28T07:48:55.064Z,1.40
2022-09-28T07:49:38.746Z,1.50
2022-09-28T07:50:21.149Z,1.50
2022-09-28T07:51:13.369Z,1.00
2022-09-28T07:51:56.436Z,1.10
2022-09-28T07:52:44.276Z,1.57
2022-09-28T07:53:25.442Z,1.20
2022-09-28T07:54:06.517Z,0.93
2022-09-28T07:54:41.398Z,1.30
2022-09-28T07:55:42.256Z,1.53
2022-09-28T07:56:29.497Z,1.33
2022-09-28T07:57:15.350Z,1.27
2022-09-28T07:57:56.198Z,1.40
2022-09-28T07:58:47.326Z,1.23
2022-09-28T07:59:37.710Z,1.30
2022-09-28T08:00:33.904Z,1.20
2022-09-28T08:01:08.314Z,1.40
2022-09-28T08:01:40.608Z,1.20
2022-09-28T08:02:15.949Z,1.30
2022-09-28T08:02:48.413Z,1.57
2022-09-28T08:03:28.628Z,1.03
2022-09-28T08:04:00.845Z,1.60
2022-09-28T08:04:32.894Z,1.37
2022-09-28T08:05:04.997Z,1.50
2022-09-28T08:05:37.612Z,1.10
2022-09-28T08:06:12.574Z,1.17